Time;durP1;ratioP1;P1;durP2;ratioP2;P2;SDS_P1;SDS_P2;PMS_P1;PMS_P2;Temp;Humidity;BMP_temperature;BMP_pressure;BME280_temperature;BME280_humidity;BME280_pressure;Samples;Min_cycle;Max_cycle;Signal;HPM_P1;HPM_P2
2022/09/10 00:01:42;;;;;;;8.55;7.72;;;26.00;66.30;;;;;;4882228;54;21478;-36
2022/09/10 00:06:43;;;;;;;7.55;6.85;;;26.00;67.00;;;;;;4804153;54;21059;-37
2022/09/10 00:11:45;;;;;;;8.10;7.32;;;26.00;66.30;;;;;;4812407;54;21087;-33
2022/09/10 00:16:46;;;;;;;7.50;6.80;;;26.00;66.30;;;;;;4795960;58;21553;-29
2022/09/10 00:21:49;;;;;;;8.63;7.50;;;26.00;66.30;;;;;;4820094;54;21087;-32
2022/09/10 00:26:50;;;;;;;9.90;7.10;;;26.00;66.30;;;;;;4824961;54;21542;-33
2022/09/10 00:31:51;;;;;;;7.82;7.05;;;25.90;66.20;;;;;;4797752;54;21103;-33
2022/09/10 00:36:52;;;;;;;7.43;6.70;;;25.90;66.30;;;;;;4799674;54;21004;-33
2022/09/10 00:41:54;;;;;;;7.50;6.75;;;26.00;66.40;;;;;;4800488;54;21004;-32
2022/09/10 00:46:55;;;;;;;7.45;6.65;;;25.90;66.20;;;;;;4823648;54;21560;-29
2022/09/10 00:51:56;;;;;;;7.53;6.82;;;25.90;66.20;;;;;;4797559;54;21072;-34
2022/09/10 00:57:04;;;;;;;7.05;6.35;;;25.90;66.30;;;;;;4795158;58;21048;-35
2022/09/10 01:02:05;;;;;;;7.90;6.47;;;26.00;66.40;;;;;;4844443;54;22077;-36
2022/09/10 01:07:08;;;;;;;7.37;6.68;;;25.90;66.40;;;;;;4813774;54;21045;-37
2022/09/10 01:13:55;;;;;;;8.20;7.32;;;25.90;66.30;;;;;;4819112;54;21528;-37
2022/09/10 01:19:08;;;;;;;7.25;6.55;;;25.90;66.20;;;;;;4825568;54;21047;-25
2022/09/10 01:24:36;;;;;;;7.03;6.35;;;25.90;66.20;;;;;;4795322;58;21043;-25
2022/09/10 01:30:06;;;;;;;7.50;6.80;;;25.90;66.30;;;;;;4850575;54;20999;-27
2022/09/10 01:35:18;;;;;;;7.40;6.70;;;25.90;66.30;;;;;;4807672;54;21501;-29
2022/09/10 01:40:27;;;;;;;6.65;6.05;;;25.90;66.30;;;;;;4820448;54;21609;-25
2022/09/10 01:45:34;;;;;;;6.85;6.25;;;25.90;66.30;;;;;;4833068;54;21550;-36
2022/09/10 01:52:17;;;;;;;7.28;6.57;;;25.90;66.30;;;;;;4816829;54;21549;-35
2022/09/10 01:58:41;;;;;;;7.05;6.35;;;25.90;66.20;;;;;;4872533;54;21091;-33
2022/09/10 02:03:46;;;;;;;7.15;6.45;;;25.90;66.20;;;;;;4874945;54;21008;-29
2022/09/10 02:08:53;;;;;;;7.35;6.65;;;25.90;66.20;;;;;;4801927;54;21622;-31
2022/09/10 02:13:54;;;;;;;6.82;6.22;;;25.90;66.30;;;;;;4795049;58;22070;-34
2022/09/10 02:18:56;;;;;;;7.50;6.80;;;25.90;66.30;;;;;;4840877;54;21099;-37
2022/09/10 02:24:07;;;;;;;7.57;6.87;;;25.90;66.20;;;;;;4815960;54;21024;-31
2022/09/10 02:29:09;;;;;;;7.20;6.50;;;25.90;66.30;;;;;;4809818;54;21027;-36
2022/09/10 02:34:10;;;;;;;6.60;6.00;;;25.90;66.30;;;;;;4821454;54;21577;-37
2022/09/10 02:39:11;;;;;;;7.15;5.95;;;25.90;66.30;;;;;;4834540;54;21467;-34
2022/09/10 02:44:11;;;;;;;6.85;6.25;;;25.90;66.30;;;;;;4802847;54;21407;-25
2022/09/10 02:49:12;;;;;;;7.20;6.47;;;25.90;66.30;;;;;;4795368;58;21031;-29
2022/09/10 02:54:13;;;;;;;6.68;6.07;;;25.90;66.20;;;;;;4798476;54;21023;-28
2022/09/10 02:59:14;;;;;;;6.50;5.90;;;25.90;66.20;;;;;;4798657;54;21479;-33
2022/09/10 03:04:16;;;;;;;7.00;6.30;;;25.90;66.30;;;;;;4795532;54;21020;-25
2022/09/10 03:09:17;;;;;;;6.55;5.95;;;25.90;66.20;;;;;;4892478;54;20988;-35
2022/09/10 03:14:21;;;;;;;7.65;6.30;;;25.90;66.20;;;;;;4825200;54;21028;-27
2022/09/10 03:19:22;;;;;;;6.85;6.22;;;25.90;66.20;;;;;;4822522;54;21569;-37
2022/09/10 03:24:24;;;;;;;7.15;6.45;;;25.90;66.20;;;;;;4796041;58;21536;-25
2022/09/10 03:29:25;;;;;;;6.97;6.30;;;25.90;66.20;;;;;;4822166;54;21586;-24
2022/09/10 03:34:26;;;;;;;6.87;6.28;;;25.90;66.30;;;;;;4818616;54;21566;-25
2022/09/10 03:39:26;;;;;;;6.22;5.72;;;25.90;66.20;;;;;;4805583;54;21012;-25
2022/09/10 03:44:27;;;;;;;7.37;6.65;;;25.90;66.20;;;;;;4808860;54;21003;-25
2022/09/10 03:49:28;;;;;;;8.35;7.10;;;25.90;66.20;;;;;;4823668;54;21620;-35
2022/09/10 03:54:29;;;;;;;7.95;6.78;;;25.90;66.20;;;;;;4821511;54;21067;-40
2022/09/10 03:59:30;;;;;;;7.78;6.97;;;25.90;66.20;;;;;;4800633;54;21035;-33
2022/09/10 04:04:32;;;;;;;9.55;6.80;;;25.80;66.10;;;;;;4798896;54;21011;-29
2022/09/10 04:09:33;;;;;;;9.02;6.82;;;25.90;66.20;;;;;;4795588;58;21459;-26
2022/09/10 04:14:37;;;;;;;7.82;7.00;;;25.80;66.20;;;;;;4817111;54;21012;-26
2022/09/10 04:19:39;;;;;;;8.35;7.15;;;25.90;66.30;;;;;;4809283;54;21518;-33
2022/09/10 04:24:40;;;;;;;9.63;7.22;;;25.80;66.20;;;;;;4813285;54;22016;-37
2022/09/10 04:29:41;;;;;;;8.07;6.75;;;25.80;66.20;;;;;;4795708;55;21028;-31
2022/09/10 04:34:43;;;;;;;9.45;7.62;;;25.80;66.20;;;;;;4813176;54;22050;-30
2022/09/10 04:39:44;;;;;;;8.32;7.03;;;25.80;66.20;;;;;;4795173;58;22052;-29
2022/09/10 04:44:45;;;;;;;8.82;7.25;;;25.80;66.80;;;;;;4814957;54;21036;-33
2022/09/10 04:49:47;;;;;;;8.77;7.40;;;25.80;66.20;;;;;;4830060;54;21043;-26
2022/09/10 04:54:48;;;;;;;9.65;7.20;;;25.80;66.20;;;;;;4810339;54;21027;-37
2022/09/10 04:59:49;;;;;;;8.52;7.05;;;25.80;66.20;;;;;;4794804;55;21122;-37
2022/09/10 05:04:50;;;;;;;8.35;7.45;;;25.80;66.20;;;;;;4818417;54;21111;-36
2022/09/10 05:09:50;;;;;;;9.02;7.53;;;25.80;66.20;;;;;;4838569;54;21031;-36
2022/09/10 05:14:51;;;;;;;9.68;7.55;;;25.80;66.20;;;;;;4798561;54;21099;-32
2022/09/10 05:19:52;;;;;;;9.88;7.28;;;25.80;66.10;;;;;;4814496;54;22413;-35
2022/09/10 05:24:54;;;;;;;7.95;6.80;;;25.80;66.20;;;;;;4814687;54;21067;-31
2022/09/10 05:29:56;;;;;;;7.82;6.78;;;25.80;66.10;;;;;;4814797;54;21708;-30
2022/09/10 05:34:57;;;;;;;8.18;7.12;;;25.80;66.10;;;;;;4812525;54;21614;-31
2022/09/10 05:39:58;;;;;;;8.50;7.40;;;25.80;66.10;;;;;;4812457;54;21122;-31
2022/09/10 05:44:59;;;;;;;8.98;7.25;;;25.80;66.10;;;;;;4838437;54;21552;-25
2022/09/10 05:50:00;;;;;;;8.05;7.18;;;25.80;65.60;;;;;;4829715;54;21091;-32
2022/09/10 05:55:01;;;;;;;9.60;7.57;;;25.80;66.00;;;;;;4813360;54;21023;-29
2022/09/10 06:00:07;;;;;;;8.20;7.40;;;25.80;66.00;;;;;;4796249;54;21040;-27
2022/09/10 06:05:08;;;;;;;7.87;6.87;;;25.80;65.90;;;;;;4831796;54;21545;-26
2022/09/10 06:10:09;;;;;;;8.57;7.20;;;25.80;65.90;;;;;;4816037;54;21043;-32
2022/09/10 06:15:10;;;;;;;9.32;7.75;;;25.80;65.90;;;;;;4832440;54;21096;-26
2022/09/10 06:20:11;;;;;;;9.73;7.72;;;25.80;65.90;;;;;;4805851;54;21023;-35
2022/09/10 06:25:12;;;;;;;9.18;7.75;;;25.80;65.40;;;;;;4839053;54;21169;-34
2022/09/10 06:30:13;;;;;;;8.55;7.32;;;25.80;65.80;;;;;;4829898;54;21135;-35
2022/09/10 06:35:14;;;;;;;9.15;7.53;;;25.80;65.80;;;;;;4810507;54;21083;-36
2022/09/10 06:40:15;;;;;;;10.80;8.13;;;25.80;65.80;;;;;;4824697;54;21450;-33
2022/09/10 06:45:16;;;;;;;10.20;8.05;;;25.80;65.80;;;;;;4805376;54;21040;-31
2022/09/10 06:50:16;;;;;;;9.98;7.57;;;25.80;65.80;;;;;;4796265;54;21013;-29
2022/09/10 06:55:17;;;;;;;9.07;7.90;;;25.80;65.70;;;;;;4840700;54;21075;-31
2022/09/10 07:00:19;;;;;;;10.00;7.62;;;25.80;65.70;;;;;;4806192;54;21080;-31
2022/09/10 07:05:19;;;;;;;9.52;7.78;;;25.80;65.70;;;;;;4795086;58;21517;-30
2022/09/10 07:10:21;;;;;;;9.65;7.87;;;25.80;66.30;;;;;;4815028;54;21004;-35
2022/09/10 07:15:22;;;;;;;9.57;7.72;;;25.80;65.80;;;;;;4795654;54;21004;-38
2022/09/10 07:20:24;;;;;;;9.38;7.87;;;25.80;65.70;;;;;;4839579;54;22401;-31
2022/09/10 07:25:25;;;;;;;10.75;8.35;;;25.80;65.70;;;;;;4798083;54;21589;-33
2022/09/10 07:30:28;;;;;;;10.13;8.43;;;25.80;65.70;;;;;;4795259;55;21517;-29
2022/09/10 07:35:29;;;;;;;10.02;7.90;;;25.80;65.60;;;;;;4825851;54;21118;-36
2022/09/10 07:40:31;;;;;;;12.18;8.02;;;25.80;65.60;;;;;;4811281;54;21517;-34
2022/09/10 07:45:32;;;;;;;9.70;7.62;;;25.80;65.60;;;;;;4850575;54;21027;-26
2022/09/10 07:50:34;;;;;;;12.15;8.80;;;25.80;65.60;;;;;;4802220;54;21482;-34
2022/09/10 07:55:36;;;;;;;12.82;7.55;;;25.80;65.50;;;;;;4798441;54;22306;-34
2022/09/10 08:00:38;;;;;;;11.90;8.55;;;25.80;65.50;;;;;;4811081;54;21589;-31
2022/09/10 08:05:39;;;;;;;12.90;8.57;;;25.80;65.50;;;;;;4838409;54;22245;-29
2022/09/10 08:10:41;;;;;;;9.52;7.95;;;25.80;65.80;;;;;;4798171;54;21546;-35
2022/09/10 08:15:43;;;;;;;10.43;8.30;;;25.80;65.40;;;;;;4797137;54;21597;-29
2022/09/10 08:20:44;;;;;;;12.82;8.35;;;25.80;65.40;;;;;;4813614;54;21084;-30
2022/09/10 08:25:51;;;;;;;13.05;8.65;;;25.80;65.40;;;;;;4802061;54;21011;-27
2022/09/10 08:31:10;;;;;;;12.27;8.25;;;25.80;65.40;;;;;;4812663;54;21125;-32
2022/09/10 08:36:12;;;;;;;11.40;8.20;;;25.80;65.30;;;;;;4839424;54;21035;-31
2022/09/10 08:43:09;;;;;;;11.18;8.05;;;25.80;65.30;;;;;;4811127;54;21580;-28
2022/09/10 08:48:19;;;;;;;11.45;8.68;;;25.80;65.30;;;;;;4793802;55;21113;-31
2022/09/10 08:53:42;;;;;;;12.07;8.88;;;25.80;65.30;;;;;;4836525;54;21023;-27
2022/09/10 08:59:03;;;;;;;11.10;8.57;;;25.80;65.30;;;;;;4806333;54;21596;-35
2022/09/10 09:04:17;;;;;;;13.13;8.82;;;25.80;65.20;;;;;;4815344;54;21047;-34
2022/09/10 09:09:19;;;;;;;11.52;8.55;;;25.80;65.10;;;;;;4805956;54;21095;-25
2022/09/10 09:21:14;;;;;;;13.07;8.70;;;25.80;65.20;;;;;;4818154;54;21517;-31
2022/09/10 09:26:17;;;;;;;11.73;8.55;;;25.80;65.10;;;;;;4828895;54;21581;-30
2022/09/10 09:32:41;;;;;;;12.45;9.40;;;25.80;65.10;;;;;;4854253;54;21749;-33
2022/09/10 09:37:47;;;;;;;11.73;9.23;;;25.80;65.10;;;;;;4801585;54;21008;-29
2022/09/10 09:43:03;;;;;;;11.57;8.70;;;25.80;65.00;;;;;;4841508;54;21095;-34
2022/09/10 09:48:06;;;;;;;11.77;8.20;;;25.80;64.90;;;;;;4826488;54;20996;-31
2022/09/10 09:53:11;;;;;;;11.35;8.55;;;25.80;64.90;;;;;;4832844;54;21059;-35
2022/09/10 09:59:29;;;;;;;11.48;8.85;;;25.80;64.90;;;;;;4814529;54;21063;-27
2022/09/10 10:04:32;;;;;;;10.20;8.30;;;25.80;64.90;;;;;;4890395;54;21027;-27
2022/09/10 10:09:40;;;;;;;11.15;8.80;;;25.80;64.90;;;;;;4815585;54;21067;-34
2022/09/10 10:14:42;;;;;;;10.65;8.63;;;25.80;64.90;;;;;;4812710;54;21008;-35
2022/09/10 10:20:08;;;;;;;12.00;8.57;;;25.80;64.90;;;;;;4812088;54;20984;-28
2022/09/10 10:25:28;;;;;;;;;;;25.80;64.80;;;;;;4798423;58;21068;-29
2022/09/10 10:30:30;;;;;;;11.27;7.87;;;25.80;64.90;;;;;;4836362;54;20301;-29
2022/09/10 10:35:52;;;;;;;11.20;8.43;;;25.80;64.80;;;;;;4838238;54;21526;-25
2022/09/10 10:44:13;;;;;;;10.00;8.15;;;25.80;64.70;;;;;;4842896;54;21133;-30
2022/09/10 10:49:58;;;;;;;10.07;9.02;;;25.80;64.80;;;;;;4826223;54;21043;-34
2022/09/10 10:55:28;;;;;;;10.68;8.65;;;25.80;64.70;;;;;;4806227;54;21501;-32
2022/09/10 11:02:06;;;;;;;12.45;8.93;;;25.80;64.70;;;;;;4794323;58;21576;-26
2022/09/10 11:07:17;;;;;;;13.27;9.40;;;25.80;64.70;;;;;;4840415;54;21493;-25
2022/09/10 11:12:38;;;;;;;11.07;9.02;;;25.80;64.60;;;;;;4814600;54;21007;-34
2022/09/10 11:17:50;;;;;;;11.20;8.95;;;25.80;64.60;;;;;;4821095;54;21087;-30
2022/09/10 11:23:23;;;;;;;10.63;8.65;;;25.80;64.60;;;;;;4832388;54;21032;-27
2022/09/10 11:28:37;;;;;;;11.77;9.27;;;25.80;64.60;;;;;;4803284;54;20986;-27
2022/09/10 11:33:59;;;;;;;10.80;9.27;;;25.80;64.60;;;;;;4807676;54;21038;-33
2022/09/10 11:39:37;;;;;;;12.40;9.32;;;25.80;64.60;;;;;;4800967;54;21000;-32
2022/09/10 11:45:04;;;;;;;10.20;8.65;;;25.80;64.50;;;;;;4830540;54;21021;-33
2022/09/10 11:50:31;;;;;;;11.00;9.20;;;25.80;64.50;;;;;;4805210;54;21064;-25
2022/09/10 11:58:17;;;;;;;10.27;8.27;;;25.80;64.50;;;;;;4795764;58;21103;-28
2022/09/10 12:07:48;;;;;;;10.93;9.30;;;25.80;64.50;;;;;;4799343;54;21015;-30
2022/09/10 12:12:49;;;;;;;9.90;8.48;;;25.80;64.50;;;;;;4802392;54;21510;-37
2022/09/10 12:17:58;;;;;;;11.18;9.00;;;25.80;64.50;;;;;;4825672;54;21482;-26
2022/09/10 12:22:59;;;;;;;10.65;8.60;;;25.80;64.40;;;;;;4814558;54;22061;-36
2022/09/10 12:28:04;;;;;;;10.23;8.90;;;25.80;64.40;;;;;;4805006;54;21040;-26
2022/09/10 12:34:34;;;;;;;9.82;8.63;;;25.80;64.40;;;;;;4833428;54;21558;-36
2022/09/10 12:39:35;;;;;;;9.85;8.02;;;25.80;64.40;;;;;;4795522;55;21051;-32
2022/09/10 12:44:46;;;;;;;9.93;8.68;;;25.80;64.40;;;;;;4843557;54;21525;-25
2022/09/10 12:49:58;;;;;;;10.07;8.55;;;25.80;64.40;;;;;;4799102;54;21040;-33
2022/09/10 12:56:51;;;;;;;9.20;8.25;;;25.80;64.40;;;;;;4906003;54;21015;-37
2022/09/10 13:01:53;;;;;;;9.77;8.70;;;25.80;64.40;;;;;;4833971;54;21078;-37
2022/09/10 13:07:02;;;;;;;9.55;8.55;;;25.80;64.30;;;;;;4831108;54;21070;-28
2022/09/10 13:12:15;;;;;;;10.55;8.27;;;25.90;64.40;;;;;;4835651;54;21084;-25
2022/09/10 13:18:10;;;;;;;10.77;8.68;;;25.80;64.30;;;;;;4795833;58;20992;-26
2022/09/10 13:23:30;;;;;;;10.13;9.00;;;25.80;64.30;;;;;;4868838;54;21052;-31
2022/09/10 13:29:28;;;;;;;9.50;8.23;;;25.90;64.40;;;;;;4833049;54;21079;-32
2022/09/10 13:35:31;;;;;;;11.05;8.43;;;25.80;64.30;;;;;;4795330;54;21008;-36
2022/09/10 13:43:54;;;;;;;11.07;8.63;;;25.80;64.20;;;;;;4810551;54;21585;-32
2022/09/10 13:49:11;;;;;;;9.07;7.72;;;25.90;64.30;;;;;;4815189;54;21067;-26
2022/09/10 13:54:37;;;;;;;10.48;8.60;;;25.80;65.00;;;;;;4829888;54;21000;-28
2022/09/10 13:59:40;;;;;;;9.30;8.20;;;25.80;64.20;;;;;;4795690;54;21047;-32
2022/09/10 14:04:41;;;;;;;9.23;8.15;;;25.80;64.20;;;;;;4809778;54;21040;-36
2022/09/10 14:09:48;;;;;;;10.40;8.40;;;25.80;64.20;;;;;;4801199;54;21027;-28
2022/09/10 14:14:53;;;;;;;9.77;8.77;;;25.80;64.20;;;;;;4808102;54;21016;-26
2022/09/10 14:20:00;;;;;;;10.68;8.85;;;25.80;64.20;;;;;;4829109;54;21103;-31
2022/09/10 14:25:02;;;;;;;9.88;8.45;;;25.80;64.20;;;;;;4814080;54;22039;-25
2022/09/10 14:30:28;;;;;;;12.25;9.07;;;25.80;64.10;;;;;;4795337;58;21572;-36
2022/09/10 14:37:24;;;;;;;8.88;7.97;;;25.90;64.20;;;;;;4795668;58;21469;-34
2022/09/10 14:42:31;;;;;;;9.57;8.27;;;25.80;64.10;;;;;;4799642;54;21486;-27
2022/09/10 14:47:34;;;;;;;10.48;8.60;;;25.90;64.10;;;;;;4806495;54;21462;-29
2022/09/10 14:52:36;;;;;;;11.23;8.93;;;25.80;64.10;;;;;;4803374;54;21907;-30
2022/09/10 14:57:37;;;;;;;10.10;8.80;;;25.90;64.30;;;;;;4807353;54;21499;-30
2022/09/10 15:02:40;;;;;;;8.75;7.85;;;25.80;64.10;;;;;;4801250;54;21094;-26
2022/09/10 15:07:41;;;;;;;10.07;8.52;;;25.80;64.00;;;;;;4806280;54;21016;-30
2022/09/10 15:12:45;;;;;;;10.32;8.70;;;25.80;64.00;;;;;;4825024;54;21609;-28
2022/09/10 15:17:46;;;;;;;10.25;8.82;;;25.80;63.90;;;;;;4804019;54;21584;-25
2022/09/10 15:22:48;;;;;;;10.48;8.80;;;25.80;63.90;;;;;;4795733;58;21566;-29
2022/09/10 15:27:51;;;;;;;11.60;8.50;;;25.80;63.90;;;;;;4832612;54;21565;-26
2022/09/10 15:32:53;;;;;;;10.10;8.40;;;25.80;64.00;;;;;;4816734;54;21549;-36
2022/09/10 15:37:54;;;;;;;9.55;8.45;;;25.80;64.40;;;;;;4829900;54;21498;-26
2022/09/10 15:42:54;;;;;;;10.18;8.50;;;25.80;63.90;;;;;;4816040;54;20984;-29
2022/09/10 15:47:55;;;;;;;9.98;8.90;;;25.80;63.90;;;;;;4841069;54;21028;-30
2022/09/10 15:52:57;;;;;;;8.52;7.70;;;25.80;63.80;;;;;;4796083;54;21513;-30
2022/09/10 15:57:57;;;;;;;10.70;9.10;;;25.80;63.80;;;;;;4796694;54;21111;-34
2022/09/10 16:02:59;;;;;;;9.93;8.52;;;25.80;63.80;;;;;;4843192;54;21465;-31
2022/09/10 16:08:01;;;;;;;10.15;9.07;;;25.90;63.90;;;;;;4812014;54;21572;-35
2022/09/10 16:13:01;;;;;;;9.13;8.20;;;25.80;63.90;;;;;;4814723;54;21011;-34
2022/09/10 16:18:02;;;;;;;9.90;8.48;;;25.80;63.90;;;;;;4840741;54;20998;-30
2022/09/10 16:23:03;;;;;;;9.98;8.55;;;25.80;63.90;;;;;;4831723;54;20996;-25
2022/09/10 16:28:04;;;;;;;9.68;8.35;;;25.80;63.90;;;;;;4797447;54;21487;-27
2022/09/10 16:33:05;;;;;;;9.52;8.55;;;25.80;64.00;;;;;;4839571;54;21075;-29
2022/09/10 16:38:06;;;;;;;10.80;8.85;;;25.80;64.10;;;;;;4814380;54;21036;-26
2022/09/10 16:43:07;;;;;;;9.13;8.23;;;25.80;64.00;;;;;;4795573;55;21570;-27
2022/09/10 16:48:08;;;;;;;9.70;8.55;;;25.80;64.00;;;;;;4824973;54;21019;-36
2022/09/10 16:53:09;;;;;;;11.60;9.25;;;25.80;64.00;;;;;;4817094;54;21020;-29
2022/09/10 16:58:11;;;;;;;11.75;9.50;;;25.80;64.10;;;;;;4801513;54;21154;-27
2022/09/10 17:03:11;;;;;;;9.32;8.38;;;25.80;64.00;;;;;;4795323;58;21596;-30
2022/09/10 17:08:12;;;;;;;9.52;8.48;;;25.80;64.60;;;;;;4890025;54;21026;-32
2022/09/10 17:13:13;;;;;;;9.63;8.63;;;25.80;64.00;;;;;;4794671;58;21052;-30
2022/09/10 17:18:15;;;;;;;10.30;8.30;;;25.80;64.10;;;;;;4795185;58;21087;-26
2022/09/10 17:23:17;;;;;;;8.73;7.85;;;25.80;64.10;;;;;;4795559;58;21576;-35
2022/09/10 17:28:18;;;;;;;9.23;8.27;;;25.80;64.20;;;;;;4842694;54;21252;-37
2022/09/10 17:33:19;;;;;;;9.40;8.35;;;25.90;64.30;;;;;;4820734;54;21032;-36
2022/09/10 17:38:20;;;;;;;9.00;8.05;;;25.80;64.20;;;;;;4795106;58;21004;-35
2022/09/10 17:43:20;;;;;;;8.85;7.95;;;25.80;64.20;;;;;;4796897;54;22080;-35
2022/09/10 17:48:22;;;;;;;9.20;7.80;;;25.80;64.70;;;;;;4812390;54;21060;-35
2022/09/10 17:53:22;;;;;;;8.90;8.02;;;25.80;64.20;;;;;;4800222;54;21506;-30
2022/09/10 17:58:26;;;;;;;9.13;8.00;;;25.80;64.30;;;;;;4794808;58;21031;-28
2022/09/10 18:03:27;;;;;;;8.88;7.97;;;25.80;64.30;;;;;;4820592;54;21668;-34
2022/09/10 18:08:31;;;;;;;8.70;7.78;;;25.80;64.30;;;;;;4817346;54;21023;-26
2022/09/10 18:13:33;;;;;;;8.00;7.20;;;25.80;64.30;;;;;;4796721;54;22217;-31
2022/09/10 18:18:35;;;;;;;9.27;7.70;;;25.80;64.30;;;;;;4795363;58;21063;-35
2022/09/10 18:23:35;;;;;;;8.55;7.28;;;25.80;64.30;;;;;;4819893;54;21043;-28
2022/09/10 18:28:36;;;;;;;8.68;7.37;;;25.80;64.30;;;;;;4808326;54;21059;-30
2022/09/10 18:33:39;;;;;;;8.68;7.15;;;25.80;64.40;;;;;;4801051;54;21042;-28
2022/09/10 18:38:40;;;;;;;9.73;7.78;;;25.80;64.40;;;;;;4805491;54;21063;-27
2022/09/10 18:43:41;;;;;;;9.15;7.82;;;25.80;64.40;;;;;;4801042;54;21011;-28
2022/09/10 18:48:42;;;;;;;8.10;7.25;;;25.80;64.40;;;;;;4801470;54;21477;-25
2022/09/10 18:53:45;;;;;;;8.13;7.32;;;25.80;64.50;;;;;;4795116;54;21506;-30
2022/09/10 18:59:04;;;;;;;8.98;7.15;;;25.80;64.50;;;;;;4887824;54;21024;-37
2022/09/10 19:04:06;;;;;;;8.55;7.30;;;25.80;64.60;;;;;;4799507;54;21513;-29
2022/09/10 19:09:09;;;;;;;7.78;6.95;;;25.80;64.60;;;;;;4811736;54;21016;-29
2022/09/10 19:14:21;;;;;;;9.25;7.12;;;25.80;64.50;;;;;;4820889;54;21027;-33
2022/09/10 19:19:27;;;;;;;7.40;6.68;;;25.80;64.60;;;;;;4796451;54;21032;-32
2022/09/10 19:24:31;;;;;;;8.18;7.15;;;25.80;64.60;;;;;;4822079;54;21557;-35
2022/09/10 19:29:32;;;;;;;9.40;6.75;;;25.80;64.60;;;;;;4859697;54;21672;-34
2022/09/10 19:34:33;;;;;;;8.25;6.68;;;25.80;64.60;;;;;;4822348;54;21043;-36
2022/09/10 19:39:34;;;;;;;8.25;7.03;;;25.80;64.60;;;;;;4795531;58;21000;-30
2022/09/10 19:44:34;;;;;;;8.30;7.00;;;25.80;65.30;;;;;;4800458;54;21066;-26
2022/09/10 19:49:35;;;;;;;7.55;6.78;;;25.80;64.70;;;;;;4810828;54;21072;-28
2022/09/10 19:54:36;;;;;;;7.80;7.00;;;25.80;64.70;;;;;;4801825;54;21011;-25
2022/09/10 19:59:37;;;;;;;8.10;6.50;;;25.80;64.70;;;;;;4846889;54;21044;-26
2022/09/10 20:04:38;;;;;;;7.43;6.60;;;25.80;64.70;;;;;;4811149;54;21489;-26
2022/09/10 20:09:39;;;;;;;7.12;6.43;;;25.80;64.90;;;;;;4831045;54;21004;-27
2022/09/10 20:14:41;;;;;;;7.72;6.72;;;25.80;64.80;;;;;;4794935;58;21023;-28
2022/09/10 20:19:42;;;;;;;7.55;6.72;;;25.80;64.80;;;;;;4810555;54;21015;-24
2022/09/10 20:24:42;;;;;;;7.97;6.05;;;25.80;64.90;;;;;;4871556;54;21004;-26
2022/09/10 20:29:45;;;;;;;7.28;6.20;;;25.80;64.90;;;;;;4846224;54;21020;-29
2022/09/10 20:34:46;;;;;;;7.70;6.07;;;25.80;64.90;;;;;;4841258;54;22100;-36
2022/09/10 20:39:47;;;;;;;6.62;5.93;;;25.80;65.00;;;;;;4804587;54;21095;-26
2022/09/10 20:44:48;;;;;;;7.22;5.95;;;25.80;64.90;;;;;;4812974;54;22026;-35
2022/09/10 20:49:49;;;;;;;7.03;6.05;;;25.80;65.20;;;;;;4795717;55;21028;-33
2022/09/10 20:54:50;;;;;;;7.35;6.65;;;25.80;64.90;;;;;;4794298;58;21024;-30
2022/09/10 20:59:51;;;;;;;6.85;6.07;;;25.80;65.00;;;;;;4809652;54;21028;-35
2022/09/10 21:04:51;;;;;;;7.68;6.43;;;25.80;64.90;;;;;;4825351;54;21506;-28
2022/09/10 21:09:52;;;;;;;6.70;6.10;;;25.80;65.10;;;;;;4808729;54;21000;-32
2022/09/10 21:14:53;;;;;;;7.45;6.45;;;25.80;65.10;;;;;;4850143;54;21034;-33
2022/09/10 21:19:54;;;;;;;6.15;5.55;;;25.80;65.70;;;;;;4816641;54;21059;-37
2022/09/10 21:24:55;;;;;;;6.97;6.03;;;25.80;65.10;;;;;;4806277;54;21068;-36
2022/09/10 21:29:56;;;;;;;6.40;5.80;;;25.80;65.10;;;;;;4862496;54;21055;-30
2022/09/10 21:34:57;;;;;;;6.30;5.68;;;25.80;65.00;;;;;;4794666;58;21020;-38
2022/09/10 21:39:58;;;;;;;6.32;5.72;;;25.80;65.00;;;;;;4818278;54;21130;-33
2022/09/10 21:45:00;;;;;;;7.12;6.37;;;25.80;65.00;;;;;;4817984;54;21556;-24
2022/09/10 21:50:01;;;;;;;6.07;5.47;;;25.80;65.10;;;;;;4799765;54;21530;-33
2022/09/10 21:55:02;;;;;;;6.43;5.82;;;25.80;65.10;;;;;;4794679;54;21509;-34
2022/09/10 22:00:05;;;;;;;6.57;5.20;;;25.80;65.20;;;;;;4869389;54;21008;-29
2022/09/10 22:05:07;;;;;;;6.50;5.80;;;25.80;65.10;;;;;;4795353;58;21142;-36
2022/09/10 22:10:08;;;;;;;6.68;5.82;;;25.80;65.10;;;;;;4825750;54;21016;-31
2022/09/10 22:15:09;;;;;;;6.25;5.57;;;25.80;65.00;;;;;;4795317;54;21087;-32
2022/09/10 22:20:10;;;;;;;7.12;5.97;;;25.70;65.00;;;;;;4887240;54;21158;-30
2022/09/10 22:25:11;;;;;;;6.80;5.87;;;25.80;65.10;;;;;;4839273;54;21873;-31
2022/09/10 22:30:11;;;;;;;5.80;5.20;;;25.80;65.10;;;;;;4812921;54;21035;-34
2022/09/10 22:35:12;;;;;;;5.80;5.30;;;25.80;65.10;;;;;;4795065;55;21023;-35
2022/09/10 22:40:14;;;;;;;6.10;5.53;;;25.80;65.10;;;;;;4795368;56;21404;-35
2022/09/10 22:45:15;;;;;;;6.22;5.53;;;25.80;65.10;;;;;;4814301;54;22185;-32
2022/09/10 22:50:15;;;;;;;6.35;5.03;;;25.80;65.10;;;;;;4838053;54;21032;-34
2022/09/10 22:55:16;;;;;;;6.10;5.50;;;25.80;65.10;;;;;;4794469;58;21775;-38
2022/09/10 23:00:17;;;;;;;6.18;5.57;;;25.80;65.10;;;;;;4797618;54;21095;-28
2022/09/10 23:05:18;;;;;;;6.12;5.35;;;25.80;65.20;;;;;;4816102;54;21063;-28
2022/09/10 23:10:19;;;;;;;6.32;5.30;;;25.80;65.10;;;;;;4816030;54;21453;-29
2022/09/10 23:15:21;;;;;;;5.53;5.03;;;25.80;65.20;;;;;;4800916;54;21135;-31
2022/09/10 23:20:23;;;;;;;6.07;5.28;;;25.80;65.20;;;;;;4814466;54;21479;-32
2022/09/10 23:25:24;;;;;;;5.85;5.32;;;25.80;64.60;;;;;;4805824;54;21532;-30
2022/09/10 23:30:25;;;;;;;5.95;5.35;;;25.80;65.10;;;;;;4796320;58;21035;-29
2022/09/10 23:35:26;;;;;;;6.05;5.20;;;25.80;65.20;;;;;;4837410;54;21143;-35
2022/09/10 23:40:27;;;;;;;6.12;5.00;;;25.80;65.10;;;;;;4818771;54;21998;-30
2022/09/10 23:45:28;;;;;;;5.80;5.30;;;25.80;65.10;;;;;;4796191;54;21433;-33
2022/09/10 23:50:28;;;;;;;5.18;4.68;;;25.80;65.20;;;;;;4840788;54;21056;-35
2022/09/10 23:55:34;;;;;;;5.57;5.07;;;25.70;65.00;;;;;;4831001;54;21028;-31
